Time,TemperatureF,DewpointF,PressureIn,WindDirection,WindDirectionDegrees,WindSpeedMPH,WindSpeedGustMPH,Humidity,HourlyPrecipIn,Conditions,Clouds,dailyrainin,SoftwareType,DateUTC
2013-10-01 00:05:00,59.9,50.1,29.72,North,-999,0.0,0.0,70,0.00,,,-99.99,WeatherLink 5.7,2013-10-01 05:05:00,
2013-10-01 00:20:00,59.8,50.0,29.73,SE,135,0.0,1.0,70,0.00,,,-99.99,WeatherLink 5.7,2013-10-01 05:20:00,
2013-10-01 00:35:00,59.8,50.4,29.73,North,-999,0.0,0.0,71,0.00,,,-99.99,WeatherLink 5.7,2013-10-01 05:35:00,
2013-10-01 00:50:00,59.5,50.8,29.74,SE,135,0.0,1.0,73,0.00,,,-99.99,WeatherLink 5.7,2013-10-01 05:50:00,
2013-10-01 01:05:00,59.5,51.6,29.74,SE,135,0.0,1.0,75,0.00,,,-99.99,WeatherLink 5.7,2013-10-01 06:05:00,
2013-10-01 01:20:00,59.5,52.3,29.73,SE,135,0.0,2.0,77,0.00,,,-99.99,WeatherLink 5.7,2013-10-01 06:20:00,
2013-10-01 01:36:00,59.6,53.1,29.74,SE,135,0.0,1.0,79,0.00,,,-99.99,WeatherLink 5.7,2013-10-01 06:36:00,
2013-10-01 01:50:00,59.5,53.3,29.74,SE,135,0.0,1.0,80,0.00,,,-99.99,WeatherLink 5.7,2013-10-01 06:50:00,
2013-10-01 02:05:00,58.7,52.9,29.73,SE,135,0.0,1.0,81,0.00,,,-99.99,WeatherLink 5.7,2013-10-01 07:05:00,
2013-10-01 02:20:00,58.3,53.5,29.73,SE,135,0.0,1.0,84,0.00,,,-99.99,WeatherLink 5.7,2013-10-01 07:20:00,
2013-10-01 02:35:00,58.1,53.6,29.73,North,-999,0.0,0.0,85,0.00,,,-99.99,WeatherLink 5.7,2013-10-01 07:35:00,
2013-10-01 02:50:00,58.1,54.2,29.73,SE,135,0.0,1.0,87,0.00,,,-99.99,WeatherLink 5.7,2013-10-01 07:50:00,
2013-10-01 03:05:00,58.3,54.8,29.73,SE,135,0.0,1.0,88,0.00,,,-99.99,WeatherLink 5.7,2013-10-01 08:05:00,
2013-10-01 03:20:00,58.3,55.1,29.73,SE,135,0.0,2.0,89,0.00,,,-99.99,WeatherLink 5.7,2013-10-01 08:20:00,
2013-10-01 03:35:00,58.1,55.2,29.73,SE,135,0.0,1.0,90,0.00,,,-99.99,WeatherLink 5.7,2013-10-01 08:35:00,
2013-10-01 03:50:00,58.0,55.1,29.73,SE,135,0.0,1.0,90,0.00,,,-99.99,WeatherLink 5.7,2013-10-01 08:50:00,
2013-10-01 04:05:00,58.0,55.4,29.73,SE,135,0.0,2.0,91,0.00,,,-99.99,WeatherLink 5.7,2013-10-01 09:05:00,
2013-10-01 04:20:00,57.8,55.2,29.73,SE,135,0.0,1.0,91,0.00,,,-99.99,WeatherLink 5.7,2013-10-01 09:20:00,
2013-10-01 04:35:00,57.8,55.5,29.73,SE,135,0.0,3.0,92,0.00,,,-99.99,WeatherLink 5.7,2013-10-01 09:35:00,
2013-10-01 04:50:00,57.6,55.3,29.73,SE,135,0.0,2.0,92,0.00,,,-99.99,WeatherLink 5.7,2013-10-01 09:50:00,
2013-10-01 05:06:00,57.5,55.2,29.73,SE,135,0.0,1.0,92,0.00,,,-99.99,WeatherLink 5.7,2013-10-01 10:06:00,
2013-10-01 05:20:00,57.3,55.3,29.74,North,-999,0.0,0.0,93,0.00,,,-99.99,WeatherLink 5.7,2013-10-01 10:20:00,
2013-10-01 05:35:00,56.9,54.9,29.74,SE,135,0.0,1.0,93,0.00,,,-99.99,WeatherLink 5.7,2013-10-01 10:35:00,
2013-10-01 05:50:00,58.0,56.3,29.74,North,-999,0.0,0.0,94,0.00,,,-99.99,WeatherLink 5.7,2013-10-01 10:50:00,
2013-10-01 06:05:00,58.6,57.2,29.74,SE,135,0.0,3.0,95,0.00,,,-99.99,WeatherLink 5.7,2013-10-01 11:05:00,
2013-10-01 06:20:00,58.7,57.3,29.74,SE,135,0.0,6.0,95,0.00,,,-99.99,WeatherLink 5.7,2013-10-01 11:20:00,
2013-10-01 06:35:00,58.9,57.5,29.75,SE,135,0.0,1.0,95,0.00,,,-99.99,WeatherLink 5.7,2013-10-01 11:35:00,
2013-10-01 06:50:00,58.9,57.5,29.75,SE,135,0.0,1.0,95,0.00,,,-99.99,WeatherLink 5.7,2013-10-01 11:50:00,
2013-10-01 07:05:00,58.9,57.5,29.76,SE,135,0.0,4.0,95,0.00,,,-99.99,WeatherLink 5.7,2013-10-01 12:05:00,
2013-10-01 07:20:00,58.9,57.5,29.76,SE,135,0.0,1.0,95,0.00,,,-99.99,WeatherLink 5.7,2013-10-01 12:20:00,
2013-10-01 07:35:00,59.2,58.1,29.76,ESE,112,0.0,4.0,96,0.00,,,-99.99,WeatherLink 5.7,2013-10-01 12:35:00,
2013-10-01 07:50:00,59.6,58.5,29.76,SE,135,0.0,2.0,96,0.00,,,-99.99,WeatherLink 5.7,2013-10-01 12:50:00,
2013-10-01 08:05:00,60.1,59.0,29.76,SSE,157,0.0,5.0,96,0.00,,,-99.99,WeatherLink 5.7,2013-10-01 13:05:00,
2013-10-01 08:20:00,60.9,59.8,29.76,SSE,157,0.0,2.0,96,0.00,,,-99.99,WeatherLink 5.7,2013-10-01 13:20:00,
2013-10-01 08:35:00,61.5,60.3,29.75,SE,135,1.0,9.0,96,0.00,,,-99.99,WeatherLink 5.7,2013-10-01 13:35:00,
2013-10-01 08:50:00,62.0,60.6,29.77,West,270,1.0,11.0,95,0.00,,,-99.99,WeatherLink 5.7,2013-10-01 13:50:00,
2013-10-01 09:05:00,62.4,60.9,29.76,SW,225,0.0,11.0,95,0.00,,,-99.99,WeatherLink 5.7,2013-10-01 14:05:00,
2013-10-01 09:20:00,63.5,62.0,29.76,SE,135,0.0,9.0,95,0.00,,,-99.99,WeatherLink 5.7,2013-10-01 14:20:00,
2013-10-01 09:35:00,64.7,62.9,29.75,WSW,247,1.0,9.0,94,0.00,,,-99.99,WeatherLink 5.7,2013-10-01 14:35:00,
2013-10-01 09:50:00,65.8,62.5,29.76,SE,135,1.0,10.0,89,0.00,,,-99.99,WeatherLink 5.7,2013-10-01 14:50:00,
2013-10-01 10:05:00,67.1,62.4,29.76,SE,135,0.0,11.0,85,0.00,,,-99.99,WeatherLink 5.7,2013-10-01 15:05:00,
2013-10-01 10:20:00,67.6,61.9,29.76,SE,135,1.0,13.0,82,0.00,,,-99.99,WeatherLink 5.7,2013-10-01 15:20:00,
2013-10-01 10:37:00,68.4,62.0,29.76,West,270,0.0,12.0,80,0.00,,,-99.99,WeatherLink 5.7,2013-10-01 15:37:00,
2013-10-01 10:50:00,69.6,62.1,29.76,WSW,247,1.0,9.0,77,0.00,,,-99.99,WeatherLink 5.7,2013-10-01 15:50:00,
2013-10-01 11:05:00,70.4,62.1,29.75,SE,135,1.0,12.0,75,0.00,,,-99.99,WeatherLink 5.7,2013-10-01 16:05:00,
2013-10-01 11:20:00,71.6,61.7,29.75,SE,135,1.0,10.0,71,0.00,,,-99.99,WeatherLink 5.7,2013-10-01 16:20:00,
2013-10-01 11:35:00,72.7,62.3,29.75,SE,135,1.0,10.0,70,0.00,,,-99.99,WeatherLink 5.7,2013-10-01 16:35:00,
2013-10-01 11:50:00,74.0,63.2,29.75,WSW,247,0.0,10.0,69,0.00,,,-99.99,WeatherLink 5.7,2013-10-01 16:50:00,
2013-10-01 12:05:00,74.4,61.9,29.74,West,270,1.0,12.0,65,0.00,,,-99.99,WeatherLink 5.7,2013-10-01 17:05:00,
2013-10-01 12:21:00,75.3,62.7,29.73,SE,135,2.0,15.0,65,0.00,,,-99.99,WeatherLink 5.7,2013-10-01 17:21:00,
2013-10-01 12:35:00,75.8,62.8,29.73,SE,135,1.0,10.0,64,0.00,,,-99.99,WeatherLink 5.7,2013-10-01 17:35:00,
2013-10-01 12:50:00,75.8,61.8,29.73,WSW,247,2.0,14.0,62,0.00,,,-99.99,WeatherLink 5.7,2013-10-01 17:50:00,
2013-10-01 13:05:00,76.3,61.9,29.72,West,270,2.0,14.0,61,0.00,,,-99.99,WeatherLink 5.7,2013-10-01 18:05:00,
2013-10-01 13:20:00,76.8,61.9,29.72,SE,135,1.0,9.0,60,0.00,,,-99.99,WeatherLink 5.7,2013-10-01 18:20:00,
2013-10-01 13:35:00,77.4,61.9,29.71,WSW,247,2.0,19.0,59,0.00,,,-99.99,WeatherLink 5.7,2013-10-01 18:35:00,
2013-10-01 13:50:00,77.7,61.3,29.71,WSW,247,3.0,19.0,57,0.00,,,-99.99,WeatherLink 5.7,2013-10-01 18:50:00,
2013-10-01 14:05:00,78.5,60.5,29.71,WSW,247,3.0,15.0,54,0.00,,,-99.99,WeatherLink 5.7,2013-10-01 19:05:00,
2013-10-01 14:20:00,79.0,60.4,29.72,WSW,247,4.0,20.0,53,0.00,,,-99.99,WeatherLink 5.7,2013-10-01 19:20:00,
2013-10-01 14:35:00,79.4,60.8,29.72,WSW,247,3.0,18.0,53,0.00,,,-99.99,WeatherLink 5.7,2013-10-01 19:35:00,
2013-10-01 14:50:00,79.8,61.1,29.72,West,270,5.0,18.0,53,0.00,,,-99.99,WeatherLink 5.7,2013-10-01 19:50:00,
2013-10-01 15:05:00,79.8,60.6,29.72,WSW,247,6.0,19.0,52,0.00,,,-99.99,WeatherLink 5.7,2013-10-01 20:05:00,
2013-10-01 15:22:00,80.1,60.9,29.72,West,270,6.0,18.0,52,0.00,,,-99.99,WeatherLink 5.7,2013-10-01 20:22:00,
2013-10-01 15:35:00,80.3,60.5,29.72,WSW,247,5.0,15.0,51,0.00,,,-99.99,WeatherLink 5.7,2013-10-01 20:35:00,
2013-10-01 15:50:00,80.5,61.3,29.72,West,270,5.0,15.0,52,0.00,,,-99.99,WeatherLink 5.7,2013-10-01 20:50:00,
2013-10-01 16:05:00,80.9,60.5,29.72,West,270,5.0,18.0,50,0.00,,,-99.99,WeatherLink 5.7,2013-10-01 21:05:00,
2013-10-01 16:20:00,80.9,60.5,29.72,WSW,247,6.0,20.0,50,0.00,,,-99.99,WeatherLink 5.7,2013-10-01 21:20:00,
2013-10-01 16:35:00,80.9,61.1,29.73,West,270,6.0,17.0,51,0.00,,,-99.99,WeatherLink 5.7,2013-10-01 21:35:00,
2013-10-01 16:50:00,81.1,61.3,29.73,WSW,247,5.0,16.0,51,0.00,,,-99.99,WeatherLink 5.7,2013-10-01 21:50:00,
2013-10-01 17:05:00,81.1,61.3,29.73,WSW,247,3.0,16.0,51,0.00,,,-99.99,WeatherLink 5.7,2013-10-01 22:05:00,
2013-10-01 17:20:00,80.9,61.6,29.73,West,270,3.0,13.0,52,0.00,,,-99.99,WeatherLink 5.7,2013-10-01 22:20:00,
2013-10-01 17:35:00,80.7,60.9,29.73,West,270,3.0,13.0,51,0.00,,,-99.99,WeatherLink 5.7,2013-10-01 22:35:00,
2013-10-01 17:50:00,80.3,61.6,29.74,West,270,2.0,13.0,53,0.00,,,-99.99,WeatherLink 5.7,2013-10-01 22:50:00,
2013-10-01 18:05:00,79.4,61.3,29.74,West,270,1.0,10.0,54,0.00,,,-99.99,WeatherLink 5.7,2013-10-01 23:05:00,
2013-10-01 18:20:00,78.1,61.6,29.74,West,270,1.0,7.0,57,0.00,,,-99.99,WeatherLink 5.7,2013-10-01 23:20:00,
2013-10-01 18:35:00,77.0,61.6,29.74,West,270,1.0,7.0,59,0.00,,,-99.99,WeatherLink 5.7,2013-10-01 23:35:00,
2013-10-01 18:50:00,76.1,61.2,29.75,West,270,0.0,1.0,60,0.00,,,-99.99,WeatherLink 5.7,2013-10-01 23:50:00,
2013-10-01 19:05:00,75.1,61.6,29.76,North,-999,0.0,0.0,63,0.00,,,-99.99,WeatherLink 5.7,2013-10-02 00:05:00,
2013-10-01 19:20:00,73.3,61.7,29.76,North,-999,0.0,0.0,67,0.00,,,-99.99,WeatherLink 5.7,2013-10-02 00:20:00,
2013-10-01 19:35:00,71.5,61.6,29.77,West,270,0.0,1.0,71,0.00,,,-99.99,WeatherLink 5.7,2013-10-02 00:35:00,
2013-10-01 19:50:00,71.1,61.6,29.78,North,-999,0.0,0.0,72,0.00,,,-99.99,WeatherLink 5.7,2013-10-02 00:50:00,
2013-10-01 20:06:00,70.1,61.4,29.78,North,-999,0.0,0.0,74,0.00,,,-99.99,WeatherLink 5.7,2013-10-02 01:06:00,
2013-10-01 20:21:00,68.6,61.1,29.78,North,-999,0.0,0.0,77,0.00,,,-99.99,WeatherLink 5.7,2013-10-02 01:21:00,
2013-10-01 20:36:00,67.3,60.9,29.79,North,-999,0.0,0.0,80,0.00,,,-99.99,WeatherLink 5.7,2013-10-02 01:36:00,
2013-10-01 20:50:00,66.4,60.7,29.79,North,-999,0.0,0.0,82,0.00,,,-99.99,WeatherLink 5.7,2013-10-02 01:50:00,
2013-10-01 21:06:00,65.6,60.6,29.79,North,-999,0.0,0.0,84,0.00,,,-99.99,WeatherLink 5.7,2013-10-02 02:06:00,
2013-10-01 21:20:00,64.8,60.2,29.79,North,-999,0.0,0.0,85,0.00,,,-99.99,WeatherLink 5.7,2013-10-02 02:20:00,
2013-10-01 21:33:00,64.0,59.1,29.80,North,-999,0.0,0.0,84,0.00,,,-99.99,WeatherLink 5.7,2013-10-02 02:33:00,
2013-10-01 21:48:00,63.2,58.6,29.80,North,-999,0.0,0.0,85,0.00,,,-99.99,WeatherLink 5.7,2013-10-02 02:48:00,
2013-10-01 22:03:00,62.6,58.4,29.80,North,-999,0.0,0.0,86,0.00,,,-99.99,WeatherLink 5.7,2013-10-02 03:03:00,
2013-10-01 22:18:00,61.8,57.9,29.80,North,-999,0.0,0.0,87,0.00,,,-99.99,WeatherLink 5.7,2013-10-02 03:18:00,
2013-10-01 22:33:00,61.0,57.1,29.81,North,-999,0.0,0.0,87,0.00,,,-99.99,WeatherLink 5.7,2013-10-02 03:33:00,
2013-10-01 22:48:00,60.4,56.8,29.81,North,-999,0.0,0.0,88,0.00,,,-99.99,WeatherLink 5.7,2013-10-02 03:48:00,
2013-10-01 23:03:00,59.9,56.6,29.81,North,-999,0.0,0.0,89,0.00,,,-99.99,WeatherLink 5.7,2013-10-02 04:03:00,
2013-10-01 23:18:00,59.5,56.3,29.82,North,-999,0.0,0.0,89,0.00,,,-99.99,WeatherLink 5.7,2013-10-02 04:18:00,
2013-10-01 23:30:00,58.9,56.0,29.83,North,-999,0.0,0.0,90,0.00,,,-99.99,WeatherLink 5.7,2013-10-02 04:30:00,
2013-10-01 23:45:00,58.9,56.3,29.83,North,-999,0.0,0.0,91,0.00,,,-99.99,WeatherLink 5.7,2013-10-02 04:45:00,